• Join FlightAware (Why Join?)
  • Login
  • US Flag 
11:24AM EST


 

Airport Tracker/Info


-or-


 

Live Flight TrackerFlight Track Log ✈ CHH7103 ✈ 26-Oct-2013 ✈ ZBAA / PEK - ZYMD / MDG

Flight Track Log - Related Links

Times and Time Zones

All times are in EDT time to prevent confusion due to time zone crossing. See the CHH7103 flight status page for this flight to view local times or setup timezone preferences in your user account.

Time Position Orientation Groundspeed Altitude Reporting Facility
EDT Latitude Longitude Course Direction KTS MPH feet Rate Location/Type
07:30PM 40.1770 116.5820 358° North 259 298 3,500  Level FlightAware
07:31PM 40.2050 116.5810 358° North 259 298 3,500 960 Level FlightAware
07:32PM 40.2860 116.6580 36° Northeast 270 311 5,200 1,380 Climbing FlightAware
07:32PM 40.3050 116.6840 46° Northeast 275 316 5,800 720 Climbing FlightAware
07:33PM 40.3270 116.7120 44° Northeast 275 316 5,800 1,620 Level FlightAware
07:34PM 40.3890 116.7960 46° Northeast 282 325 8,400 1,680 Climbing FlightAware
07:34PM 40.4100 116.8240 45° Northeast 282 325 8,400  Level FlightAware
07:35PM 40.4290 116.8480 44° Northeast 282 325 8,400  Level FlightAware
07:35PM 40.4490 116.8740 45° Northeast 282 325 8,400 5,040 Level FlightAware
07:36PM 40.5220 116.9740 46° Northeast 319 367 15,500 5,880 Climbing FlightAware
07:37PM 40.5360 116.9970 51° Northeast 349 402 15,700 2,220 Climbing FlightAware
07:38PM 40.5630 117.1270 75° East 383 441 18,300 2,700 Climbing FlightAware
07:38PM 40.5740 117.1920 77° East 392 451 19,700 2,760 Climbing FlightAware
07:39PM 40.5940 117.2710 72° East 399 459 21,200 2,580 Climbing FlightAware
07:39PM 40.6310 117.3830 66° East 412 474 23,300 2,460 Climbing FlightAware
07:40PM 40.6620 117.4770 66° East 422 486 24,900 2,220 Climbing FlightAware
07:41PM 40.7020 117.5910 65° Northeast 431 496 26,600 1,080 Climbing FlightAware
07:42PM 40.7400 117.7020 66° East 432 497 26,600  Level FlightAware
07:42PM 40.7630 117.7690 66° East 432 497 26,600  Level FlightAware
07:43PM 40.7870 117.8430 67° East 431 496 26,600  Level FlightAware
07:44PM 40.8310 117.9730 66° East 431 496 26,600  Level FlightAware
07:44PM 40.8550 118.0450 66° East 431 496 26,600  Level FlightAware
07:45PM 40.8810 118.1200 65° Northeast 431 496 26,600  Level FlightAware
07:46PM 40.9220 118.2410 66° East 431 496 26,600  Level FlightAware
07:47PM 40.9550 118.3400 66° East 431 496 26,600  Level FlightAware
07:49PM 41.0464 118.5769 63° Northeast  Level Estimated
07:50PM 41.0943 118.7019 63° Northeast  Level Estimated
07:51PM 41.1421 118.8270 63° Northeast  Level Estimated
07:52PM 41.1897 118.9523 63° Northeast  Level Estimated
07:53PM 41.2372 119.0778 63° Northeast  Level Estimated
07:54PM 41.2845 119.2035 63° Northeast  Level Estimated
07:55PM 41.3318 119.3294 63° Northeast  Level Estimated
07:56PM 41.3789 119.4555 64° Northeast  Level Estimated
07:57PM 41.4258 119.5817 64° Northeast  Level Estimated
07:58PM 41.4726 119.7081 64° Northeast  Level Estimated
07:59PM 41.5193 119.8347 64° Northeast  Level Estimated
08:00PM 41.5658 119.9615 64° Northeast  Level Estimated
08:01PM 41.6122 120.0884 64° Northeast  Level Estimated
08:02PM 41.6585 120.2156 64° Northeast  Level Estimated
08:03PM 41.7046 120.3429 64° Northeast  Level Estimated
08:04PM 41.7505 120.4704 64° Northeast  Level Estimated
08:05PM 41.7964 120.5981 64° Northeast  Level Estimated
08:06PM 41.8421 120.7260 64° Northeast  Level Estimated
08:07PM 41.8876 120.8540 64° Northeast  Level Estimated
08:08PM 41.9330 120.9823 65° Northeast  Level Estimated
08:09PM 41.9783 121.1107 65° Northeast  Level Estimated
08:10PM 42.0234 121.2393 65° Northeast  Level Estimated
08:11PM 42.0684 121.3681 65° Northeast  Level Estimated
08:12PM 42.1132 121.4971 65° Northeast  Level Estimated
08:13PM 42.1579 121.6262 65° Northeast  Level Estimated
08:14PM 42.2024 121.7555 65° Northeast  Level Estimated
08:15PM 42.2468 121.8851 65° Northeast  Level Estimated
08:16PM 42.2911 122.0148 65° Northeast  Level Estimated
08:17PM 42.3352 122.1447 65° Northeast  Level Estimated
08:18PM 42.3792 122.2747 65° Northeast  Level Estimated
08:19PM 42.4230 122.4050 65° Northeast  Level Estimated
08:20PM 42.4666 122.5354 66° East  Level Estimated
08:21PM 42.5101 122.6660 66° East  Level Estimated
08:22PM 42.5535 122.7968 66° East  Level Estimated
08:23PM 42.5967 122.9277 66° East  Level Estimated
08:24PM 42.6398 123.0589 66° East  Level Estimated
08:25PM 42.6827 123.1902 66° East  Level Estimated
08:26PM 42.7255 123.3217 66° East  Level Estimated
08:27PM 42.7681 123.4535 66° East  Level Estimated
08:28PM 42.8106 123.5853 66° East  Level Estimated
08:29PM 42.8529 123.7174 66° East  Level Estimated
08:30PM 42.8950 123.8496 66° East  Level Estimated
08:31PM 42.9370 123.9820 67° East  Level Estimated
08:32PM 42.9789 124.1146 67° East  Level Estimated
08:33PM 43.0206 124.2474 67° East  Level Estimated
08:34PM 43.0621 124.3804 67° East  Level Estimated
08:35PM 43.1035 124.5135 67° East  Level Estimated
08:36PM 43.1448 124.6469 67° East  Level Estimated
08:37PM 43.1859 124.7803 67° East  Level Estimated
08:38PM 43.2268 124.9140 67° East  Level Estimated
08:39PM 43.2676 125.0479 67° East  Level Estimated
08:40PM 43.3082 125.1819 67° East  Level Estimated
08:41PM 43.3487 125.3161 67° East  Level Estimated
08:42PM 43.3890 125.4505 68° East  Level Estimated
08:43PM 43.4291 125.5851 68° East  Level Estimated
08:44PM 43.4691 125.7199 68° East  Level Estimated
08:45PM 43.5089 125.8548 68° East  Level Estimated
08:46PM 43.5486 125.9899 68° East  Level Estimated
08:47PM 43.5881 126.1252 68° East  Level Estimated
08:48PM 43.6275 126.2607 68° East  Level Estimated
08:49PM 43.6666 126.3963 68° East  Level Estimated
08:50PM 43.7057 126.5321 68° East  Level Estimated
08:51PM 43.7445 126.6681 68° East  Level Estimated
08:52PM 43.7833 126.8043 68° East  Level Estimated
08:53PM 43.8218 126.9406 69° East  Level Estimated
08:54PM 43.8602 127.0771 69° East  Level Estimated
08:55PM 43.8984 127.2139 69° East  Level Estimated
08:56PM 43.9365 127.3507 69° East  Level Estimated
08:57PM 43.9744 127.4878 69° East  Level Estimated
08:58PM 44.0121 127.6250 69° East  Level Estimated
08:59PM 44.0497 127.7624 69° East  Level Estimated
09:00PM 44.0871 127.9000 69° East  Level Estimated
09:01PM 44.1243 128.0377 69° East  Level Estimated
09:02PM 44.1614 128.1756 69° East  Level Estimated
09:03PM 44.1983 128.3137 70° East  Level Estimated
09:04PM 44.2350 128.4520 70° East  Level Estimated
09:05PM 44.2716 128.5904 70° East  Level Estimated
09:06PM 44.3080 128.7290 70° East  Level Estimated
09:07PM 44.3442 128.8678 70° East  Level Estimated
09:08PM 44.3803 129.0067 70° East  Level Estimated
09:09PM 44.4162 129.1459 70° East  Level Estimated
09:10PM 44.4519 129.2852 70° East  Level Estimated
09:11PM 44.4875 129.4246 70° East  Level Estimated
09:12PM 44.5229 129.5643 70° East  Level Estimated
09:13PM 44.5241 129.5690 71° East  Level Estimated
09:14PM 44.5241 129.5690 35° Northeast  Level Estimated
09:15PM 44.5241 129.5690 35° Northeast  Level Estimated
09:16PM 44.5241 129.5690 35° Northeast  Level Estimated
09:17PM 44.5241 129.5690 35° Northeast  Level Estimated
09:18PM 44.5241 129.5690 35° Northeast  Level Estimated
09:19PM 44.5241 129.5690 35° Northeast  Level Estimated
09:20PM 44.5241 129.5690 35° Northeast  Level Estimated
09:21PM 44.5241 129.5690 35° Northeast  Level Estimated
09:22PM 44.5241 129.5690 35° Northeast  Level Estimated
09:23PM 44.5241 129.5690 35° Northeast  Level Estimated